Saturday, November 18, 2017, 6:09 PM EST
Back to Local

KELZ, Wellsville Municipal Airport

Location: Wellsville, NY, United States Lat: 42.1
Local Time: 6:09 PM EST (23:09 GMT) Lon: -78
Time Zone: US/Eastern Elev: 2122 ft

Show me the last for .
Show Decoded

2017-11-18 17:56 METAR KELZ 182256Z AUTO 19010G17KT 3SM RA BR OVC007 08/06 A2935 RMK AO2 CIG
                 005V010 SLP946 P0004 T00780056 $ =
2017-11-18 16:56 METAR KELZ 182156Z AUTO 18009KT 130V200 10SM -RA OVC007 08/06 A2935 RMK AO2
                 SLP947 P0005 T00780056 $ =
2017-11-18 16:14 METAR KELZ 182114Z AUTO 18010G19KT 3SM -RA BKN009 BKN013 OVC026 08/05 A2940 RMK
                 AO2 P0004 T00780050 $ =
2017-11-18 15:56 METAR KELZ 182056Z AUTO 19010G18KT 2 1/2SM RA BR BKN009 OVC027 07/05 A2941 RMK
                 AO2 SLP967 P0010 60010 T00720050 56036 $ =
2017-11-18 15:44 METAR KELZ 182044Z AUTO 18009G17KT 2 1/2SM RA BR OVC008 07/05 A2941 RMK AO2
                 P0007 T00720050 $ =
2017-11-18 14:56 METAR KELZ 181956Z AUTO 18010G18KT 3SM -RA BR OVC005 07/04 A2944 RMK AO2 RAB51
                 SLP978 P0000 T00670044 $ =
2017-11-18 14:40 METAR KELZ 181940Z AUTO 18008G19KT 4SM BR OVC005 07/04 A2944 RMK AO2 T00670044 $
                 =
2017-11-18 14:33 METAR KELZ 181933Z AUTO 19008G16KT 2 1/2SM BR OVC005 07/04 A2944 RMK AO2
                 T00670044 $ =
2017-11-18 14:09 METAR KELZ 181909Z AUTO 20009KT 1 3/4SM BR OVC005 07/04 A2946 RMK AO2 T00670044
                 $ =
2017-11-18 13:56 METAR KELZ 181856Z AUTO 19011G19KT 10SM OVC005 07/04 A2947 RMK AO2 PRESFR SLP991
                 T00670039 $ =
2017-11-18 12:56 METAR KELZ 181756Z AUTO 19012G21KT 10SM OVC007 07/03 A2952 RMK AO2 SLP007 60002
                 T00670033 10067 20044 56027 $ =
2017-11-18 11:56 METAR KELZ 181656Z AUTO 20012G23KT 10SM OVC008 06/03 A2952 RMK AO2 SLP009
                 T00610033 $ =
2017-11-18 10:56 METAR KELZ 181556Z AUTO 19014G20KT 10SM OVC009 06/03 A2957 RMK AO2 PK WND
                 18026/1457 CIG 008V012 SLP027 T00610028 $ =
2017-11-18 09:56 METAR KELZ 181456Z AUTO 20015G24KT 10SM BKN013 OVC021 06/01 A2960 RMK AO2
                 RAE1359 SLP038 P0000 60002 T00560011 56035 $ =
2017-11-18 08:56 METAR KELZ 181356Z AUTO 19015G23KT 10SM -RA BKN020 OVC026 05/00 A2963 RMK AO2 PK
                 WND 18027/1345 RAE01B47 SLP046 P0000 T00500000 $ =
2017-11-18 08:46 METAR KELZ 181346Z AUTO 18016G27KT 10SM BKN026 OVC035 05/M01 A2964 RMK AO2 PK
                 WND 18027/1345 RAE01 P0000 T00501006 $ =
2017-11-18 07:56 METAR KELZ 181256Z AUTO 18009G18KT 10SM -RA SCT043 BKN050 BKN070 05/M01 A2966
                 RMK AO2 RAB1157 SLP059 P0002 T00501011 $ =
2017-11-18 06:56 METAR KELZ 181156Z AUTO 20011G17KT 180V240 9SM FEW065 BKN080 OVC110 07/M06 A2971
                 RMK AO2 SLP076 T00671061 10067 20028 56019 $ =
2017-11-18 05:56 METAR KELZ 181056Z AUTO VRB06KT 10SM OVC085 06/M06 A2972 RMK AO2 SLP078
                 T00611061 $ =
2017-11-18 04:56 METAR KELZ 180956Z AUTO 15007KT 10SM CLR 06/M07 A2973 RMK AO2 SLP083 T00561067 $
                 =
2017-11-18 03:56 METAR KELZ 180856Z AUTO VRB05KT 10SM CLR 04/M06 A2977 RMK AO2 SLP097 T00441061
                 58029 $ =
2017-11-18 02:56 METAR KELZ 180756Z AUTO 13004KT 10SM CLR 03/M06 A2982 RMK AO2 SLP113 T00281056 $
                 =
2017-11-18 01:56 METAR KELZ 180656Z AUTO 16006KT 10SM CLR 03/M07 A2983 RMK AO2 SLP117 T00331067 $
                 =
2017-11-18 00:56 METAR KELZ 180556Z AUTO 16005KT 10SM CLR 03/M07 A2987 RMK AO2 PRESFR SLP129
                 T00281072 10033 20006 58032 $ =
2017-11-17 23:56 METAR KELZ 180456Z AUTO 17006KT 10SM CLR 03/M08 A2992 RMK AO2 SLP148 T00281078
                 400391022 $ =
2017-11-17 22:56 METAR KELZ 180356Z AUTO 19005KT 10SM CLR 03/M07 A2994 RMK AO2 SLP157 T00281067 =
2017-11-17 21:56 METAR KELZ 180256Z AUTO 18007KT 10SM CLR 02/M06 A2997 RMK AO2 SLP167 T00221061
                 58021 =
2017-11-17 20:56 METAR KELZ 180156Z AUTO 17008KT 10SM SCT110 02/M05 A2999 RMK AO2 SLP178
                 T00221050 =
2017-11-17 19:56 METAR KELZ 180056Z AUTO 16004KT 10SM OVC110 01/M06 A3002 RMK AO2 SLP189
                 T00111056 =
2017-11-17 18:56 METAR KELZ 172356Z AUTO 14006KT 10SM CLR 01/M06 A3003 RMK AO2 SLP193 T00061056
                 10039 20006 58018 =

Support USWX by starting your Amazon purchase here.